Time;durP1;ratioP1;P1;durP2;ratioP2;P2;SDS_P1;SDS_P2;PMS_P1;PMS_P2;Temp;Humidity;BMP_temperature;BMP_pressure;BME280_temperature;BME280_humidity;BME280_pressure;Samples;Min_cycle;Max_cycle;Signal;HPM_P1;HPM_P2
2023/04/05 00:03:01;;;;;;;23.80;12.40;;;;;;;-0.78;88.19;100941.67;180775;1265;44012;-87
2023/04/05 00:07:07;;;;;;;23.10;12.10;;;;;;;-0.75;87.91;100940.36;180824;1264;44064;-87
2023/04/05 00:11:10;;;;;;;27.40;13.40;;;;;;;-0.78;87.96;100938.88;180914;1262;43805;-87
2023/04/05 00:15:13;;;;;;;24.00;12.70;;;;;;;-0.78;87.78;100939.04;180913;1263;43799;-87
2023/04/05 00:19:16;;;;;;;17.80;11.70;;;;;;;-0.86;88.99;100940.80;180497;1262;57917;-87
2023/04/05 00:23:24;;;;;;;31.10;17.10;;;;;;;-0.93;89.44;100939.41;180729;1262;43917;-86
2023/04/05 00:27:27;;;;;;;42.80;18.10;;;;;;;-1.04;89.54;100936.86;180786;1262;43822;-86
2023/04/05 00:31:30;;;;;;;23.10;13.10;;;;;;;-1.12;88.94;100932.86;180817;1262;44029;-87
2023/04/05 00:35:33;;;;;;;17.80;12.80;;;;;;;-1.03;89.18;100929.88;180893;1262;43877;-86
2023/04/05 00:39:39;;;;;;;22.00;14.30;;;;;;;-0.98;88.68;100930.47;180837;1264;59062;-86
2023/04/05 00:43:42;;;;;;;20.20;13.00;;;;;;;-0.97;88.63;100924.34;180829;1263;43706;-87
2023/04/05 00:47:46;;;;;;;32.70;16.70;;;;;;;-0.92;88.79;100925.45;180690;1263;43999;-87
2023/04/05 00:51:49;;;;;;;32.20;15.90;;;;;;;-0.83;89.16;100920.02;180703;1263;43916;-87
2023/04/05 00:55:53;;;;;;;18.60;13.20;;;;;;;-0.83;89.45;100924.54;180917;1262;44047;-88
2023/04/05 01:00:10;;;;;;;24.60;15.10;;;;;;;-0.84;89.76;100922.30;180812;1262;59391;-87
2023/04/05 01:04:20;;;;;;;34.10;13.50;;;;;;;-0.96;90.62;100919.98;180719;1263;44070;-87
2023/04/05 01:08:42;;;;;;;22.80;13.10;;;;;;;-1.07;91.17;100921.09;180898;1262;44250;-88
2023/04/05 01:12:46;;;;;;;26.10;13.50;;;;;;;-1.12;91.90;100924.52;180885;1262;43800;-88
2023/04/05 01:16:50;;;;;;;23.10;11.70;;;;;;;-1.10;91.94;100923.44;180771;1262;43821;-86
2023/04/05 01:21:33;;;;;;;30.00;14.00;;;;;;;-1.12;91.26;100917.39;180745;1263;57883;-87
2023/04/05 01:25:58;;;;;;;13.30;10.30;;;;;;;-1.04;90.51;100911.26;180179;1267;44600;-87
2023/04/05 01:30:02;;;;;;;25.40;13.40;;;;;;;-1.09;90.97;100908.10;180348;1267;44234;-86
2023/04/05 01:34:20;;;;;;;22.50;11.40;;;;;;;-1.18;91.74;100909.17;180230;1270;43911;-87
2023/04/05 01:38:26;;;;;;;17.50;11.10;;;;;;;-1.32;92.86;100906.88;180325;1267;44009;-87
2023/04/05 01:42:30;;;;;;;22.70;14.90;;;;;;;-1.40;93.16;100901.29;180159;1267;59263;-86
2023/04/05 01:46:33;;;;;;;23.00;14.10;;;;;;;-1.43;93.29;100894.05;180242;1269;44203;-87
2023/04/05 01:50:36;;;;;;;28.80;13.70;;;;;;;-1.50;93.46;100898.39;180119;1267;43999;-88
2023/04/05 01:54:39;;;;;;;17.60;13.10;;;;;;;-1.47;93.32;100895.35;180124;1262;44434;-87
2023/04/05 01:58:43;;;;;;;14.80;10.10;;;;;;;-1.36;92.81;100901.39;180764;1262;44367;-87
2023/04/05 02:02:46;;;;;;;19.80;15.90;;;;;;;-1.37;92.61;100895.84;180757;1263;59452;-88
2023/04/05 02:06:50;;;;;;;22.20;13.00;;;;;;;-1.38;92.57;100891.49;180712;1263;43794;-87
2023/04/05 02:11:13;;;;;;;16.20;9.50;;;;;;;-1.32;91.76;100893.98;180838;1262;43979;-87
2023/04/05 02:15:16;;;;;;;15.80;11.80;;;;;;;-1.29;91.92;100889.90;180914;1262;44053;-87
2023/04/05 02:19:21;;;;;;;22.70;13.10;;;;;;;-1.22;92.06;100883.67;180873;1262;44899;-87
2023/04/05 02:23:26;;;;;;;26.30;13.10;;;;;;;-1.18;91.61;100888.98;180708;1262;57174;-87
2023/04/05 02:27:31;;;;;;;23.60;14.90;;;;;;;-1.10;91.24;100880.94;180867;1263;44231;-86
2023/04/05 02:31:35;;;;;;;19.60;12.90;;;;;;;-0.96;90.34;100874.71;180877;1263;44005;-87
2023/04/05 02:35:38;;;;;;;20.20;11.80;;;;;;;-0.90;89.16;100863.41;180750;1263;43979;-87
2023/04/05 02:39:41;;;;;;;21.80;13.50;;;;;;;-0.88;88.35;100868.23;180835;1262;43788;-87
2023/04/05 02:43:45;;;;;;;23.10;11.90;;;;;;;-0.81;87.92;100870.33;180774;1263;62554;-86
2023/04/05 02:47:48;;;;;;;17.10;10.30;;;;;;;-0.77;86.95;100872.67;180795;1263;44156;-86
2023/04/05 02:51:51;;;;;;;16.20;10.40;;;;;;;-0.84;85.94;100877.02;180870;1263;44119;-87
2023/04/05 02:55:55;;;;;;;18.60;10.70;;;;;;;-1.00;86.11;100871.66;180852;1263;44109;-88
2023/04/05 02:59:59;;;;;;;20.30;10.20;;;;;;;-1.09;87.13;100865.79;180845;1262;43783;-88
2023/04/05 03:04:02;;;;;;;19.50;11.50;;;;;;;-1.22;88.66;100865.39;180846;1262;59276;-88
2023/04/05 03:08:07;;;;;;;20.00;11.70;;;;;;;-1.20;89.13;100857.16;180819;1262;43877;-88
2023/04/05 03:12:12;;;;;;;23.60;12.20;;;;;;;-1.19;88.56;100852.08;180781;1263;44199;-87
2023/04/05 03:16:15;;;;;;;15.60;12.10;;;;;;;-1.22;88.12;100849.55;180752;1263;43981;-88
2023/04/05 03:20:19;;;;;;;17.10;11.20;;;;;;;-1.20;87.92;100844.45;180858;1262;44224;-85
2023/04/05 03:24:24;;;;;;;17.10;11.50;;;;;;;-1.16;87.78;100846.28;180788;1262;60084;-89
2023/04/05 03:28:33;;;;;;;16.60;10.60;;;;;;;-1.18;87.93;100846.52;180726;1263;43752;-89
2023/04/05 03:32:39;;;;;;;16.60;11.70;;;;;;;-1.24;87.98;100844.74;180788;1264;43887;-88
2023/04/05 03:36:44;;;;;;;15.90;10.90;;;;;;;-1.23;88.17;100843.84;180720;1262;43994;-89
2023/04/05 03:40:50;;;;;;;18.20;11.20;;;;;;;-1.22;88.36;100839.45;180862;1262;43840;-88
2023/04/05 03:44:54;;;;;;;18.10;11.70;;;;;;;-1.17;88.47;100831.84;180759;1262;60693;-89
2023/04/05 03:48:58;;;;;;;15.50;10.40;;;;;;;-1.13;89.01;100834.73;180635;1263;44244;-90
2023/04/05 03:53:02;;;;;;;29.20;12.30;;;;;;;-1.29;90.63;100838.91;180764;1262;44345;-89
2023/04/05 03:57:06;;;;;;;18.60;11.50;;;;;;;-1.36;92.10;100843.96;180918;1262;44096;-88
2023/04/05 04:01:11;;;;;;;22.30;11.80;;;;;;;-1.24;92.74;100849.43;180806;1262;44168;-88
2023/04/05 04:05:16;;;;;;;21.70;12.80;;;;;;;-1.15;92.69;100853.92;180589;1263;59238;-88
2023/04/05 04:09:24;;;;;;;22.20;11.90;;;;;;;-1.05;92.99;100860.47;180809;1262;43997;-87
2023/04/05 04:13:28;;;;;;;18.80;13.00;;;;;;;-1.00;92.54;100858.77;180879;1262;43801;-87
2023/04/05 04:17:33;;;;;;;19.60;13.90;;;;;;;-0.97;92.40;100859.59;180910;1262;44409;-86
2023/04/05 04:21:38;;;;;;;31.40;15.60;;;;;;;-0.89;92.08;100863.20;180552;1264;44071;-88
2023/04/05 04:25:44;;;;;;;20.70;10.70;;;;;;;-0.77;91.96;100860.83;180693;1262;60960;-89
2023/04/05 04:29:48;;;;;;;23.90;14.40;;;;;;;-0.70;92.58;100862.73;180748;1262;43800;-88
2023/04/05 04:33:52;;;;;;;25.90;15.60;;;;;;;-0.59;94.02;100862.63;180828;1262;43998;-87
2023/04/05 04:37:57;;;;;;;24.20;16.20;;;;;;;-0.47;93.55;100866.49;180695;1262;43926;-88
2023/04/05 04:42:00;;;;;;;29.10;15.00;;;;;;;-0.32;93.13;100865.59;180661;1262;44023;-87
2023/04/05 04:46:09;;;;;;;28.80;16.70;;;;;;;-0.21;92.96;100867.53;180738;1262;58315;-87
2023/04/05 04:50:13;;;;;;;24.60;15.30;;;;;;;-0.02;93.17;100862.48;180680;1262;44311;-87
2023/04/05 04:54:19;;;;;;;21.90;13.20;;;;;;;0.16;91.52;100862.33;180729;1262;44244;-88
2023/04/05 04:58:23;;;;;;;26.80;14.40;;;;;;;0.19;91.34;100862.61;180549;1262;43739;-87
2023/04/05 05:02:27;;;;;;;22.30;13.90;;;;;;;0.12;91.97;100862.09;180767;1262;43666;-87
2023/04/05 05:06:33;;;;;;;25.80;15.50;;;;;;;0.01;92.09;100862.05;180579;1263;58066;-87
2023/04/05 05:10:36;;;;;;;25.70;14.30;;;;;;;0.06;92.88;100859.13;180867;1262;44142;-87
2023/04/05 05:14:40;;;;;;;19.30;12.70;;;;;;;0.86;93.96;100856.88;180774;1262;43777;-87
2023/04/05 05:18:49;;;;;;;23.80;15.00;;;;;;;1.81;89.01;100855.92;180832;1262;44538;-88
2023/04/05 05:23:00;;;;;;;21.90;15.60;;;;;;;2.42;83.99;100854.20;180874;1262;44284;-88
2023/04/05 05:27:05;;;;;;;26.30;17.40;;;;;;;2.64;79.96;100850.73;180757;1262;57356;-88
2023/04/05 05:31:08;;;;;;;25.90;17.30;;;;;;;2.58;80.00;100854.32;180947;1263;44200;-88
2023/04/05 05:35:12;;;;;;;21.70;14.00;;;;;;;2.43;79.75;100854.37;180975;1262;44051;-88
2023/04/05 05:39:15;;;;;;;17.20;12.90;;;;;;;2.24;80.07;100858.61;180665;1262;44258;-88
2023/04/05 05:43:19;;;;;;;27.60;13.30;;;;;;;2.14;80.93;100854.42;180680;1262;43867;-88
2023/04/05 05:47:22;;;;;;;22.60;12.90;;;;;;;2.01;81.53;100849.64;180670;1262;59344;-88
2023/04/05 05:51:26;;;;;;;22.40;13.90;;;;;;;1.95;82.07;100847.06;180915;1262;43885;-88
2023/04/05 05:55:29;;;;;;;20.80;13.00;;;;;;;1.90;82.80;100847.75;180861;1262;43993;-88
2023/04/05 05:59:32;;;;;;;22.60;12.20;;;;;;;1.87;83.63;100848.42;180727;1262;44145;-88
2023/04/05 06:03:35;;;;;;;26.40;13.20;;;;;;;1.84;84.37;100847.11;180712;1262;43885;-88
2023/04/05 06:07:39;;;;;;;27.30;13.00;;;;;;;1.83;85.18;100846.61;180884;1262;59615;-88
2023/04/05 06:11:42;;;;;;;24.30;13.50;;;;;;;1.91;84.93;100846.00;180817;1262;44094;-88
2023/04/05 06:16:00;;;;;;;23.70;12.70;;;;;;;1.93;85.32;100848.69;180623;1262;44038;-88
2023/04/05 06:20:05;;;;;;;21.00;13.30;;;;;;;1.98;85.21;100843.80;180762;1262;43862;-87
2023/04/05 06:24:09;;;;;;;16.30;13.30;;;;;;;2.08;85.20;100848.17;180685;1262;44089;-87
2023/04/05 06:28:12;;;;;;;28.20;13.20;;;;;;;2.15;85.17;100849.85;180911;1262;59181;-88
2023/04/05 06:32:15;;;;;;;20.80;11.70;;;;;;;2.21;84.46;100846.79;180698;1262;43839;-87
2023/04/05 06:36:20;;;;;;;19.30;13.90;;;;;;;2.25;84.74;100857.50;180914;1262;43852;-87
2023/04/05 06:40:23;;;;;;;18.60;12.70;;;;;;;2.31;85.93;100858.14;180871;1262;43864;-87
2023/04/05 06:44:26;;;;;;;14.40;10.40;;;;;;;2.40;84.32;100856.94;180876;1262;44057;-89
2023/04/05 06:48:32;;;;;;;18.10;12.90;;;;;;;2.45;83.55;100857.82;180893;1262;60465;-88
2023/04/05 06:52:36;;;;;;;;;;;;;;;2.53;84.48;100857.65;180664;1262;44333;-88
2023/04/05 06:56:40;;;;;;;26.30;12.80;;;;;;;2.49;84.07;100859.39;180862;1262;43550;-88
2023/04/05 07:00:46;;;;;;;24.40;11.20;;;;;;;2.52;84.36;100865.08;180627;1262;43849;-87
2023/04/05 07:04:50;;;;;;;18.70;12.90;;;;;;;2.48;84.12;100862.94;180862;1262;44162;-88
2023/04/05 07:08:57;;;;;;;17.20;12.90;;;;;;;2.51;84.66;100861.79;180716;1262;59699;-89
2023/04/05 07:13:01;;;;;;;20.60;12.50;;;;;;;2.61;85.07;100864.52;180718;1262;44105;-88
2023/04/05 07:17:06;;;;;;;23.00;12.90;;;;;;;2.77;85.26;100864.07;180622;1262;43840;-88
2023/04/05 07:21:10;;;;;;;24.50;13.90;;;;;;;3.01;85.34;100863.83;180816;1262;43874;-88
2023/04/05 07:25:14;;;;;;;18.70;12.10;;;;;;;3.30;85.79;100857.36;180716;1262;44108;-88
2023/04/05 07:29:17;;;;;;;18.10;13.20;;;;;;;3.64;84.37;100853.82;180705;1262;59642;-87
2023/04/05 07:33:20;;;;;;;22.30;12.50;;;;;;;3.83;80.83;100854.05;180778;1262;43879;-87
2023/04/05 07:37:26;;;;;;;14.00;9.40;;;;;;;3.80;76.73;100854.70;180765;1262;44033;-88
2023/04/05 07:41:34;;;;;;;18.40;12.50;;;;;;;3.85;75.58;100850.09;180856;1262;43902;-87
2023/04/05 07:45:38;;;;;;;17.00;11.70;;;;;;;3.99;76.32;100852.79;180708;1262;43797;-87
2023/04/05 07:49:42;;;;;;;16.10;8.10;;;;;;;4.10;75.45;100857.23;180653;1262;57967;-87
2023/04/05 07:53:45;;;;;;;14.00;10.90;;;;;;;4.19;75.20;100857.86;180679;1262;43972;-87
2023/04/05 07:57:49;;;;;;;14.80;10.20;;;;;;;4.43;76.15;100855.73;180630;1262;43766;-87
2023/04/05 08:01:52;;;;;;;18.10;11.90;;;;;;;4.54;75.67;100854.33;180764;1262;44036;-88
2023/04/05 08:06:16;;;;;;;18.20;10.50;;;;;;;4.59;74.65;100854.48;180416;1262;450963;-88
2023/04/05 08:10:20;;;;;;;18.90;13.30;;;;;;;4.58;76.89;100860.99;180648;1262;59350;-87
2023/04/05 08:14:23;;;;;;;29.10;13.50;;;;;;;4.63;74.71;100864.30;180775;1262;43873;-87
2023/04/05 08:18:28;;;;;;;17.20;13.10;;;;;;;4.59;74.12;100861.65;180824;1263;43943;-87
2023/04/05 08:22:32;;;;;;;17.30;12.70;;;;;;;4.58;76.11;100862.21;180733;1263;44288;-88
2023/04/05 08:26:35;;;;;;;13.60;8.00;;;;;;;4.57;76.44;100855.61;180662;1264;44164;-87
2023/04/05 08:30:40;;;;;;;6.90;5.80;;;;;;;4.64;76.72;100856.52;180558;1264;59211;-88
2023/04/05 08:34:43;;;;;;;5.80;4.20;;;;;;;4.91;77.07;100848.20;180663;1263;44344;-88
2023/04/05 08:38:46;;;;;;;10.70;6.80;;;;;;;5.14;75.26;100837.71;180635;1263;44039;-88
2023/04/05 08:43:07;;;;;;;17.30;11.00;;;;;;;5.32;76.25;100837.52;180698;1263;43894;-88
2023/04/05 08:47:14;;;;;;;12.30;8.50;;;;;;;5.59;75.19;100839.35;180498;1263;44099;-88
2023/04/05 08:51:27;;;;;;;14.80;9.00;;;;;;;5.75;71.73;100837.42;180734;1264;59556;-87
2023/04/05 08:55:32;;;;;;;15.10;8.50;;;;;;;6.08;71.40;100835.55;180642;1264;43994;-88
2023/04/05 08:59:39;;;;;;;10.70;7.00;;;;;;;6.55;70.23;100830.20;180625;1263;44385;-87
2023/04/05 09:03:44;;;;;;;10.70;6.70;;;;;;;6.85;67.95;100826.37;180690;1264;44021;-87
2023/04/05 09:07:49;;;;;;;14.50;7.90;;;;;;;6.94;66.82;100827.09;180537;1264;44081;-88
2023/04/05 09:11:56;;;;;;;8.60;5.80;;;;;;;6.93;65.58;100825.21;180606;1264;59433;-88
2023/04/05 09:16:00;;;;;;;6.00;4.80;;;;;;;6.86;64.95;100822.82;180718;1262;44102;-88
2023/04/05 09:20:03;;;;;;;7.60;5.80;;;;;;;6.81;64.48;100822.52;180756;1264;43709;-88
2023/04/05 09:24:06;;;;;;;22.40;8.20;;;;;;;6.90;65.72;100821.66;180698;1262;43906;-88
2023/04/05 09:28:11;;;;;;;10.10;6.60;;;;;;;6.97;63.33;100816.16;180730;1262;44019;-87
2023/04/05 09:32:15;;;;;;;7.90;5.60;;;;;;;7.00;64.63;100813.73;180801;1262;59227;-86
2023/04/05 09:36:18;;;;;;;7.30;4.60;;;;;;;6.93;64.04;100813.92;180633;1262;43851;-87
2023/04/05 09:40:22;;;;;;;12.50;6.70;;;;;;;6.85;64.54;100808.42;180682;1262;43799;-88
2023/04/05 09:44:25;;;;;;;11.40;6.40;;;;;;;6.87;64.94;100809.15;180736;1262;43829;-87
2023/04/05 09:48:46;;;;;;;8.30;5.10;;;;;;;7.06;64.04;100801.75;180743;1262;43782;-87
2023/04/05 09:52:50;;;;;;;8.20;4.50;;;;;;;7.06;61.69;100798.93;180853;1262;59593;-88
2023/04/05 09:56:56;;;;;;;7.10;5.40;;;;;;;7.19;64.73;100791.61;180778;1262;44317;-88
2023/04/05 10:00:59;;;;;;;5.80;4.40;;;;;;;7.19;63.87;100788.65;180818;1262;44236;-88
2023/04/05 10:05:22;;;;;;;8.30;5.30;;;;;;;7.31;64.11;100783.86;180726;1265;43856;-88
2023/04/05 10:09:26;;;;;;;7.20;4.60;;;;;;;7.74;64.69;100781.77;180662;1262;43739;-88
2023/04/05 10:13:30;;;;;;;5.90;4.10;;;;;;;8.06;62.71;100781.92;180743;1262;59391;-88
2023/04/05 10:17:43;;;;;;;9.50;3.30;;;;;;;8.33;63.10;100781.48;180666;1262;43904;-88
2023/04/05 10:21:49;;;;;;;3.80;3.20;;;;;;;8.12;59.84;100784.55;180716;1264;43851;-88
2023/04/05 10:25:52;;;;;;;2.80;2.10;;;;;;;7.98;60.14;100776.91;180531;1262;44184;-88
2023/04/05 10:30:05;;;;;;;14.90;3.70;;;;;;;8.02;60.97;100771.55;180927;1262;43741;-88
2023/04/05 10:34:23;;;;;;;7.20;3.20;;;;;;;8.13;61.77;100761.88;180856;1262;58006;-87
2023/04/05 10:38:35;;;;;;;5.60;2.40;;;;;;;7.99;59.99;100764.02;180794;1262;44213;-87
2023/04/05 10:42:42;;;;;;;5.20;2.90;;;;;;;7.73;59.90;100767.02;180911;1262;43856;-86
2023/04/05 10:46:46;;;;;;;3.90;2.90;;;;;;;7.63;60.83;100757.42;180802;1262;43826;-88
2023/04/05 10:50:49;;;;;;;6.60;4.20;;;;;;;7.54;63.29;100757.05;180918;1262;43871;-88
2023/04/05 10:54:55;;;;;;;10.90;4.30;;;;;;;7.24;63.93;100757.79;180744;1262;57328;-87
2023/04/05 10:59:00;;;;;;;10.50;3.90;;;;;;;7.08;64.45;100758.77;180748;1262;44242;-88
2023/04/05 11:03:03;;;;;;;5.60;2.80;;;;;;;7.11;64.44;100754.16;180765;1262;43873;-88
2023/04/05 11:07:15;;;;;;;11.80;2.20;;;;;;;7.25;64.40;100757.25;180683;1262;43965;-87
2023/04/05 11:11:21;;;;;;;3.10;2.70;;;;;;;7.23;63.04;100755.77;180751;1262;43877;-88
2023/04/05 11:15:24;;;;;;;8.00;2.80;;;;;;;7.45;65.73;100756.50;180801;1262;58248;-88
2023/04/05 11:19:43;;;;;;;6.90;2.90;;;;;;;7.82;66.99;100754.48;180831;1262;52739;-87
2023/04/05 11:24:06;;;;;;;2.50;2.20;;;;;;;7.87;65.04;100755.59;180924;1262;44012;-88
2023/04/05 11:28:21;;;;;;;6.80;3.20;;;;;;;7.67;61.76;100750.97;180629;1262;43881;-87
2023/04/05 11:32:41;;;;;;;5.20;3.10;;;;;;;7.59;61.10;100745.61;180741;1262;43806;-88
2023/04/05 11:36:47;;;;;;;7.60;3.10;;;;;;;7.67;61.83;100743.55;180740;1262;58468;-87
2023/04/05 11:41:06;;;;;;;5.70;3.00;;;;;;;7.77;62.10;100741.55;180784;1262;43719;-88
2023/04/05 11:45:10;;;;;;;4.80;3.00;;;;;;;7.64;62.68;100733.13;180774;1262;43932;-88
2023/04/05 11:49:13;;;;;;;6.40;4.20;;;;;;;7.68;64.29;100729.88;180722;1262;43907;-87
2023/04/05 11:53:17;;;;;;;3.80;2.90;;;;;;;8.16;66.33;100727.04;180749;1262;43753;-88
2023/04/05 11:57:41;;;;;;;2.60;2.00;;;;;;;8.49;60.57;100717.19;180573;1262;58352;-87
2023/04/05 12:01:44;;;;;;;4.20;3.20;;;;;;;8.72;60.30;100719.19;180731;1262;43844;-87
2023/04/05 12:05:47;;;;;;;4.20;3.30;;;;;;;8.76;59.99;100711.00;180627;1262;44177;-87
2023/04/05 12:10:04;;;;;;;7.40;3.50;;;;;;;8.56;58.35;100715.48;180922;1262;44070;-88
2023/04/05 12:14:08;;;;;;;15.90;5.40;;;;;;;8.15;60.25;100720.75;180858;1262;43740;-87
2023/04/05 12:18:14;;;;;;;4.40;2.70;;;;;;;7.65;60.98;100721.96;180606;1264;59317;-88
2023/04/05 12:22:18;;;;;;;9.40;3.90;;;;;;;7.22;64.66;100722.80;180605;1264;44132;-87
2023/04/05 12:26:21;;;;;;;3.50;3.20;;;;;;;6.87;66.30;100722.06;180712;1264;44416;-87
2023/04/05 12:30:26;;;;;;;11.10;4.30;;;;;;;6.66;65.92;100721.69;180728;1263;44000;-86
2023/04/05 12:34:29;;;;;;;5.40;3.20;;;;;;;6.79;65.50;100719.73;180684;1264;43803;-87
2023/04/05 12:38:32;;;;;;;5.60;3.90;;;;;;;6.91;65.48;100715.83;180789;1264;59601;-87
2023/04/05 12:42:37;;;;;;;7.60;4.70;;;;;;;7.07;64.81;100711.20;180786;1263;44131;-88
2023/04/05 12:46:46;;;;;;;5.50;3.70;;;;;;;7.11;64.14;100708.83;180691;1263;44143;-92
2023/04/05 12:50:51;;;;;;;3.40;2.90;;;;;;;7.14;65.32;100710.25;180965;1263;43959;-89
2023/04/05 12:54:54;;;;;;;3.20;2.50;;;;;;;6.77;67.67;100712.80;180702;1262;44138;-85
2023/04/05 12:58:58;;;;;;;8.00;4.50;;;;;;;6.50;69.90;100713.86;180880;1262;57866;-81
2023/04/05 13:03:01;;;;;;;4.80;3.30;;;;;;;6.34;71.08;100720.56;180848;1262;44647;-84
2023/04/05 13:07:04;;;;;;;6.00;2.50;;;;;;;6.31;71.16;100726.35;180717;1262;43775;-84
2023/04/05 13:11:07;;;;;;;5.70;3.90;;;;;;;6.37;71.04;100720.21;180857;1261;43931;-84
2023/04/05 13:15:11;;;;;;;4.30;2.60;;;;;;;6.50;71.95;100717.73;180788;1262;45882;-84
2023/04/05 13:19:14;;;;;;;6.20;3.60;;;;;;;6.61;72.60;100710.52;180662;1262;58432;-84
2023/04/05 13:23:17;;;;;;;4.10;3.20;;;;;;;6.71;71.46;100708.20;180819;1261;43843;-83
2023/04/05 13:27:22;;;;;;;4.70;2.90;;;;;;;6.71;70.28;100701.85;180638;1262;43991;-83
2023/04/05 13:31:26;;;;;;;6.60;4.00;;;;;;;6.74;70.29;100700.42;180788;1261;44101;-83
2023/04/05 13:35:29;;;;;;;11.90;3.70;;;;;;;6.79;69.40;100706.16;180813;1262;44043;-83
2023/04/05 13:39:32;;;;;;;4.30;3.90;;;;;;;6.85;70.19;100704.03;180788;1262;63589;-83
2023/04/05 13:43:35;;;;;;;9.50;5.50;;;;;;;6.85;69.69;100700.14;180804;1261;44811;-83
2023/04/05 13:47:39;;;;;;;5.40;3.90;;;;;;;6.85;68.63;100695.77;180818;1261;44135;-84
2023/04/05 13:51:42;;;;;;;5.60;4.50;;;;;;;6.88;68.30;100694.52;180698;1262;44062;-84
2023/04/05 13:55:45;;;;;;;8.00;5.40;;;;;;;6.95;69.05;100696.41;180736;1261;43998;-84
2023/04/05 13:59:49;;;;;;;9.10;5.00;;;;;;;7.02;71.32;100696.66;180740;1261;58095;-83
2023/04/05 14:03:52;;;;;;;4.80;2.70;;;;;;;7.11;72.49;100697.71;180763;1261;44979;-84
2023/04/05 14:07:56;;;;;;;2.70;2.10;;;;;;;7.24;70.98;100695.20;180744;1261;43856;-84
2023/04/05 14:12:03;;;;;;;3.30;2.70;;;;;;;7.39;69.11;100691.27;180616;1262;44136;-84
2023/04/05 14:16:06;;;;;;;3.40;2.90;;;;;;;7.52;66.09;100691.55;180732;1262;43952;-84
2023/04/05 14:20:09;;;;;;;5.60;3.60;;;;;;;7.48;65.99;100691.80;180838;1262;59662;-83
2023/04/05 14:24:12;;;;;;;7.80;4.20;;;;;;;7.43;66.14;100693.84;180905;1261;44122;-84
2023/04/05 14:28:15;;;;;;;3.10;2.00;;;;;;;7.21;66.64;100690.09;180661;1262;44145;-83
2023/04/05 14:32:18;;;;;;;9.20;5.60;;;;;;;6.99;66.29;100692.29;180745;1261;44086;-83
2023/04/05 14:36:21;;;;;;;6.50;3.80;;;;;;;6.81;68.31;100698.80;180639;1261;44486;-83
2023/04/05 14:40:24;;;;;;;4.00;2.60;;;;;;;6.70;71.29;100701.19;180695;1262;57935;-82
2023/04/05 14:44:27;;;;;;;4.50;2.70;;;;;;;6.68;71.97;100694.61;180841;1261;44091;-82
2023/04/05 14:48:32;;;;;;;3.60;2.20;;;;;;;6.74;69.99;100688.46;180861;1261;43852;-83
2023/04/05 14:52:36;;;;;;;4.20;2.00;;;;;;;6.84;70.02;100688.21;180797;1262;44068;-84
2023/04/05 14:56:39;;;;;;;4.60;2.30;;;;;;;6.97;70.21;100689.56;180693;1262;44039;-84
2023/04/05 15:00:47;;;;;;;6.80;2.80;;;;;;;7.15;70.58;100690.77;180766;1261;58036;-85
2023/04/05 15:04:50;;;;;;;3.40;2.10;;;;;;;7.36;70.06;100691.95;180584;1261;44555;-85
2023/04/05 15:08:53;;;;;;;3.30;1.90;;;;;;;7.49;68.43;100692.22;180732;1261;43716;-85
2023/04/05 15:12:56;;;;;;;3.50;2.00;;;;;;;7.54;68.18;100689.11;180772;1262;43832;-85
2023/04/05 15:16:58;;;;;;;3.20;2.40;;;;;;;7.64;67.16;100690.98;180750;1261;43992;-83
2023/04/05 15:21:01;;;;;;;3.00;2.10;;;;;;;7.76;65.63;100682.60;180645;1262;58744;-84
2023/04/05 15:25:05;;;;;;;3.40;2.40;;;;;;;7.88;64.10;100680.09;180730;1262;43825;-85
2023/04/05 15:29:08;;;;;;;2.60;1.90;;;;;;;8.21;63.56;100675.33;180832;1261;43809;-84
2023/04/05 15:33:11;;;;;;;6.20;2.70;;;;;;;8.57;61.34;100678.84;180790;1262;44241;-85
2023/04/05 15:37:14;;;;;;;6.50;2.70;;;;;;;8.76;60.79;100676.50;180618;1262;44224;-84
2023/04/05 15:41:17;;;;;;;4.50;2.80;;;;;;;8.81;60.46;100676.86;180813;1261;58673;-84
2023/04/05 15:45:20;;;;;;;6.50;2.30;;;;;;;8.83;62.41;100675.30;180683;1261;44096;-84
2023/04/05 15:49:23;;;;;;;3.10;2.00;;;;;;;8.68;61.39;100672.09;180659;1261;43871;-84
2023/04/05 15:53:25;;;;;;;2.90;2.50;;;;;;;8.49;63.85;100675.14;180820;1262;43719;-85
2023/04/05 15:57:29;;;;;;;3.00;2.40;;;;;;;8.38;67.27;100683.42;180928;1261;44211;-86
2023/04/05 16:01:32;;;;;;;3.30;2.30;;;;;;;8.23;65.06;100684.22;180842;1261;59400;-85
2023/04/05 16:05:35;;;;;;;5.20;3.10;;;;;;;8.15;65.47;100684.52;180879;1261;44043;-84
2023/04/05 16:09:37;;;;;;;3.30;2.50;;;;;;;8.07;66.50;100685.21;180790;1262;44243;-84
2023/04/05 16:13:40;;;;;;;4.30;2.70;;;;;;;8.04;65.02;100684.34;180584;1262;43772;-85
2023/04/05 16:17:43;;;;;;;2.40;2.20;;;;;;;8.06;64.04;100680.18;180782;1261;43805;-86
2023/04/05 16:21:48;;;;;;;6.00;3.10;;;;;;;8.04;63.54;100678.52;180888;1261;57032;-84
2023/04/05 16:25:55;;;;;;;5.60;3.10;;;;;;;8.09;64.73;100681.21;180954;1261;43801;-85
2023/04/05 16:29:58;;;;;;;2.90;1.90;;;;;;;8.10;63.57;100677.08;180810;1261;43794;-85
2023/04/05 16:34:01;;;;;;;3.40;2.50;;;;;;;8.08;64.95;100678.66;180642;1262;44611;-85
2023/04/05 16:38:05;;;;;;;3.20;2.10;;;;;;;8.04;65.08;100676.79;180708;1262;44071;-85
2023/04/05 16:42:08;;;;;;;4.60;2.60;;;;;;;7.97;64.57;100680.77;180897;1262;57552;-85
2023/04/05 16:46:11;;;;;;;4.80;3.50;;;;;;;7.92;66.18;100681.09;180622;1262;44372;-85
2023/04/05 16:50:14;;;;;;;6.20;3.10;;;;;;;7.90;66.68;100682.98;180884;1261;43918;-85
2023/04/05 16:54:17;;;;;;;6.40;3.50;;;;;;;7.85;67.41;100683.27;180756;1261;44343;-85
2023/04/05 16:58:20;;;;;;;5.00;3.90;;;;;;;7.78;68.32;100687.95;180820;1262;44137;-84
2023/04/05 17:02:23;;;;;;;10.10;4.00;;;;;;;7.63;68.12;100691.38;180730;1262;59837;-84
2023/04/05 17:06:26;;;;;;;9.50;5.00;;;;;;;7.44;69.73;100689.92;180710;1262;44215;-85
2023/04/05 17:10:29;;;;;;;6.00;4.40;;;;;;;7.23;69.92;100685.73;180686;1262;44278;-85
2023/04/05 17:14:32;;;;;;;7.80;5.90;;;;;;;7.08;71.38;100686.96;180822;1262;44060;-85
2023/04/05 17:18:38;;;;;;;9.30;6.50;;;;;;;6.92;72.32;100686.37;180808;1262;44179;-85
2023/04/05 17:22:41;;;;;;;5.40;4.60;;;;;;;6.75;73.47;100688.79;180824;1262;57082;-86
2023/04/05 17:26:45;;;;;;;11.00;4.00;;;;;;;6.64;73.04;100689.73;180991;1262;43867;-85
2023/04/05 17:30:49;;;;;;;7.00;3.90;;;;;;;6.58;73.19;100689.95;180620;1262;44056;-85
2023/04/05 17:34:53;;;;;;;6.80;4.00;;;;;;;6.51;74.07;100696.17;180843;1261;44111;-86
2023/04/05 17:38:57;;;;;;;9.90;8.10;;;;;;;6.45;73.60;100694.72;180789;1262;43974;-86
2023/04/05 17:43:00;;;;;;;22.30;13.60;;;;;;;6.40;73.17;100699.76;180713;1262;59232;-85
2023/04/05 17:47:03;;;;;;;13.90;7.30;;;;;;;6.33;73.15;100706.32;180789;1261;44080;-88
2023/04/05 17:51:13;;;;;;;7.20;5.70;;;;;;;6.15;74.37;100709.09;180828;1261;43811;-89
2023/04/05 17:55:17;;;;;;;11.30;7.00;;;;;;;5.90;75.60;100716.80;180896;1262;44111;-88
2023/04/05 17:59:20;;;;;;;11.80;5.60;;;;;;;5.60;75.67;100721.92;180964;1261;44325;-86
2023/04/05 18:03:27;;;;;;;7.20;4.90;;;;;;;5.34;76.17;100725.58;180770;1261;60194;-88
2023/04/05 18:07:37;;;;;;;6.20;4.30;;;;;;;5.07;75.93;100735.07;180697;1262;44237;-86
2023/04/05 18:11:41;;;;;;;7.30;4.70;;;;;;;4.90;75.42;100739.11;180927;1261;44111;-88
2023/04/05 18:15:50;;;;;;;8.40;5.20;;;;;;;4.79;75.57;100741.77;180771;1261;43822;-88
2023/04/05 18:19:53;;;;;;;8.40;4.10;;;;;;;4.68;75.71;100745.80;180888;1261;44279;-88
2023/04/05 18:23:57;;;;;;;10.50;4.60;;;;;;;4.57;75.73;100748.11;180792;1262;58479;-89
2023/04/05 18:28:02;;;;;;;7.50;3.60;;;;;;;4.44;75.95;100747.66;180769;1261;44050;-89
2023/04/05 18:32:27;;;;;;;8.50;5.50;;;;;;;4.31;75.83;100752.31;180797;1262;44108;-88
2023/04/05 18:36:35;;;;;;;8.50;5.00;;;;;;;4.22;76.28;100758.05;180718;1262;44323;-90
2023/04/05 18:40:38;;;;;;;9.40;6.10;;;;;;;4.14;75.56;100764.02;180842;1264;45198;-89
2023/04/05 18:44:42;;;;;;;7.30;4.90;;;;;;;4.13;75.87;100770.40;180822;1261;57479;-89